Time;durP1;ratioP1;P1;durP2;ratioP2;P2;SDS_P1;SDS_P2;PMS_P1;PMS_P2;Temp;Humidity;BMP_temperature;BMP_pressure;BME280_temperature;BME280_humidity;BME280_pressure;Samples;Min_cycle;Max_cycle;Signal;HPM_P1;HPM_P2
2021/10/05 00:01:24;;;;;;;3.85;2.20;;;;;;;8.40;100.00;101456.28;4969532;28;20049;-73
2021/10/05 00:03:49;;;;;;;3.92;2.35;;;;;;;8.43;100.00;101457.84;4994503;28;20438;-71
2021/10/05 00:06:15;;;;;;;5.63;2.08;;;;;;;8.45;100.00;101458.56;4984418;28;20541;-72
2021/10/05 00:08:40;;;;;;;5.55;2.25;;;;;;;8.41;100.00;101452.69;4988875;28;20044;-72
2021/10/05 00:11:06;;;;;;;3.78;2.10;;;;;;;8.36;100.00;101447.81;4970712;28;20034;-74
2021/10/05 00:13:32;;;;;;;3.70;2.30;;;;;;;8.33;100.00;101448.03;5007329;28;20061;-71
2021/10/05 00:15:57;;;;;;;3.40;2.15;;;;;;;8.30;100.00;101450.06;5001699;28;20092;-73
2021/10/05 00:18:23;;;;;;;7.45;2.67;;;;;;;8.39;100.00;101454.59;4988436;28;20045;-72
2021/10/05 00:20:48;;;;;;;5.60;2.80;;;;;;;8.39;100.00;101450.19;4982600;28;20088;-73
2021/10/05 00:23:14;;;;;;;4.63;2.20;;;;;;;8.31;100.00;101449.13;4974088;28;20040;-71
2021/10/05 00:25:39;;;;;;;5.00;2.45;;;;;;;8.30;100.00;101447.44;4984136;28;20041;-75
2021/10/05 00:28:06;;;;;;;2.55;2.00;;;;;;;8.29;100.00;101445.78;4989608;28;20391;-73
2021/10/05 00:30:33;;;;;;;4.25;2.40;;;;;;;8.31;100.00;101434.25;4958204;28;20060;-70
2021/10/05 00:32:59;;;;;;;6.15;2.75;;;;;;;8.33;100.00;101431.53;4988402;28;20553;-74
2021/10/05 00:35:24;;;;;;;7.20;2.85;;;;;;;8.42;100.00;101428.25;4972100;28;20048;-72
2021/10/05 00:37:50;;;;;;;9.13;3.03;;;;;;;8.44;100.00;101431.59;4999809;28;20050;-71
2021/10/05 00:40:15;;;;;;;6.72;2.90;;;;;;;8.37;100.00;101432.97;5000176;28;20034;-72
2021/10/05 00:42:41;;;;;;;5.80;2.92;;;;;;;8.45;100.00;101427.19;4964344;28;20507;-72
2021/10/05 00:45:07;;;;;;;4.88;2.80;;;;;;;8.44;100.00;101422.91;4965674;28;20057;-71
2021/10/05 00:47:34;;;;;;;2.63;2.42;;;;;;;8.45;100.00;101435.84;5007578;28;20045;-73
2021/10/05 00:49:59;;;;;;;9.45;3.20;;;;;;;8.39;100.00;101429.28;4976005;28;20030;-72
2021/10/05 00:52:25;;;;;;;3.83;2.70;;;;;;;8.38;100.00;101430.25;4990350;28;20117;-72
2021/10/05 00:54:51;;;;;;;3.25;2.60;;;;;;;8.34;100.00;101430.56;5008794;28;20548;-74
2021/10/05 00:57:16;;;;;;;4.20;2.20;;;;;;;8.40;100.00;101435.34;4987704;28;20429;-74
2021/10/05 00:59:42;;;;;;;7.38;2.42;;;;;;;8.51;100.00;101426.72;4974315;28;20037;-75
2021/10/05 01:02:11;;;;;;;5.63;2.47;;;;;;;8.53;100.00;101417.81;4989049;28;20045;-73
2021/10/05 01:04:37;;;;;;;6.88;2.63;;;;;;;8.49;100.00;101415.53;5006888;28;20030;-73
2021/10/05 01:07:07;;;;;;;4.07;2.25;;;;;;;8.51;100.00;101417.13;4992125;28;20022;-72
2021/10/05 01:09:34;;;;;;;2.58;2.20;;;;;;;8.48;100.00;101411.28;4982537;28;20058;-72
2021/10/05 01:12:00;;;;;;;5.10;2.65;;;;;;;8.54;100.00;101414.25;4992313;28;20033;-71
2021/10/05 01:14:26;;;;;;;5.78;2.40;;;;;;;8.59;100.00;101403.44;4975881;28;20403;-72
2021/10/05 01:16:55;;;;;;;4.97;2.08;;;;;;;8.63;100.00;101396.22;5009506;28;20042;-72
2021/10/05 01:19:21;;;;;;;5.40;2.53;;;;;;;8.67;100.00;101400.25;4974865;28;20411;-74
2021/10/05 01:21:47;;;;;;;3.50;1.98;;;;;;;8.73;100.00;101394.53;4960245;28;20678;-71
2021/10/05 01:24:15;;;;;;;4.22;2.08;;;;;;;8.77;100.00;101386.31;5008531;28;20022;-72
2021/10/05 01:26:41;;;;;;;4.57;2.10;;;;;;;8.82;100.00;101383.38;4989630;28;20116;-72
2021/10/05 01:29:10;;;;;;;3.88;1.95;;;;;;;8.77;100.00;101375.84;5008859;28;20394;-72
2021/10/05 01:31:42;;;;;;;5.05;2.10;;;;;;;8.76;100.00;101384.66;4973772;28;20064;-72
2021/10/05 01:34:08;;;;;;;4.07;2.25;;;;;;;8.75;100.00;101376.94;5000207;28;20057;-72
2021/10/05 01:36:34;;;;;;;5.72;2.35;;;;;;;8.66;100.00;101370.63;4970880;28;20085;-72
2021/10/05 01:39:02;;;;;;;2.67;2.10;;;;;;;8.64;100.00;101366.47;4975659;28;20037;-72
2021/10/05 01:41:28;;;;;;;4.95;2.50;;;;;;;8.66;100.00;101369.81;4992379;28;20041;-72
2021/10/05 01:43:53;;;;;;;2.95;1.83;;;;;;;8.61;100.00;101371.94;4991081;28;21234;-72
2021/10/05 01:46:19;;;;;;;6.47;2.30;;;;;;;8.55;100.00;101371.47;4992187;28;20104;-73
2021/10/05 01:48:45;;;;;;;4.38;2.45;;;;;;;8.48;100.00;101365.03;4992212;28;20087;-71
2021/10/05 01:51:11;;;;;;;3.88;2.50;;;;;;;8.49;100.00;101352.78;4991287;28;20029;-72
2021/10/05 01:53:38;;;;;;;4.28;2.55;;;;;;;8.45;100.00;101354.00;4991456;28;20115;-72
2021/10/05 01:56:05;;;;;;;4.13;2.20;;;;;;;8.43;100.00;101358.50;4991432;28;20072;-75
2021/10/05 01:58:30;;;;;;;4.82;2.33;;;;;;;8.37;100.00;101352.75;5008437;28;20038;-72
2021/10/05 02:00:56;;;;;;;2.72;2.03;;;;;;;8.39;100.00;101353.47;4976071;28;20041;-72
2021/10/05 02:03:21;;;;;;;3.28;2.15;;;;;;;8.41;100.00;101342.06;5008923;28;20132;-73
2021/10/05 02:05:47;;;;;;;3.90;2.22;;;;;;;8.47;100.00;101345.06;4991327;28;20046;-72
2021/10/05 02:08:16;;;;;;;3.58;2.30;;;;;;;8.52;100.00;101345.56;5009462;28;20026;-72
2021/10/05 02:10:42;;;;;;;6.10;2.58;;;;;;;8.57;100.00;101346.03;4979656;28;20549;-73
2021/10/05 02:13:08;;;;;;;6.00;2.60;;;;;;;8.70;100.00;101350.31;4975984;28;20038;-72
2021/10/05 02:15:35;;;;;;;5.78;2.30;;;;;;;8.68;100.00;101344.34;4991318;28;20034;-73
2021/10/05 02:18:05;;;;;;;4.57;2.15;;;;;;;8.66;100.00;101343.66;5002565;28;20110;-72
2021/10/05 02:20:31;;;;;;;3.25;2.10;;;;;;;8.63;100.00;101339.50;4991653;28;20044;-75
2021/10/05 02:22:58;;;;;;;6.97;2.30;;;;;;;8.54;100.00;101338.41;5007231;28;20033;-74
2021/10/05 02:25:27;;;;;;;8.68;2.20;;;;;;;8.58;100.00;101337.22;4990160;28;20042;-73
2021/10/05 02:27:52;;;;;;;7.13;2.10;;;;;;;8.59;100.00;101332.84;5006597;28;20037;-72
2021/10/05 02:30:18;;;;;;;3.40;2.20;;;;;;;8.62;100.00;101329.97;4993020;28;20407;-72
2021/10/05 02:32:44;;;;;;;7.00;2.63;;;;;;;8.63;100.00;101318.59;4990159;28;20048;-72
2021/10/05 02:35:11;;;;;;;5.90;2.58;;;;;;;8.68;100.00;101320.81;5003935;28;20034;-73
2021/10/05 02:37:37;;;;;;;5.82;3.10;;;;;;;8.73;100.00;101318.69;5002928;28;20037;-72
2021/10/05 02:40:07;;;;;;;3.53;2.50;;;;;;;8.71;100.00;101324.03;5008878;28;20033;-73
2021/10/05 02:42:34;;;;;;;3.70;2.60;;;;;;;8.71;100.00;101324.03;4991109;28;20034;-72
2021/10/05 02:45:00;;;;;;;7.22;2.60;;;;;;;8.74;100.00;101312.50;5007605;28;20076;-72
2021/10/05 02:47:26;;;;;;;3.80;2.58;;;;;;;8.74;100.00;101307.28;4987672;28;20086;-72
2021/10/05 02:49:52;;;;;;;6.25;3.13;;;;;;;8.71;100.00;101297.88;4989722;28;20070;-71
2021/10/05 02:52:20;;;;;;;8.85;2.80;;;;;;;8.68;100.00;101302.50;5003423;28;20033;-73
2021/10/05 02:54:47;;;;;;;8.32;2.85;;;;;;;8.71;100.00;101300.50;4971644;28;20438;-72
2021/10/05 02:57:17;;;;;;;7.18;3.00;;;;;;;8.70;100.00;101298.84;5006472;28;20490;-72
2021/10/05 02:59:43;;;;;;;9.43;3.05;;;;;;;8.69;100.00;101289.31;5007911;28;20034;-73
2021/10/05 03:02:10;;;;;;;8.98;3.28;;;;;;;8.68;100.00;101284.22;4988189;28;20029;-72
2021/10/05 03:04:35;;;;;;;11.10;3.33;;;;;;;8.64;100.00;101273.16;4990701;28;20113;-73
2021/10/05 03:07:01;;;;;;;9.02;3.65;;;;;;;8.67;100.00;101272.91;5005397;28;20136;-72
2021/10/05 03:09:26;;;;;;;7.53;3.38;;;;;;;8.63;100.00;101276.75;4986682;28;20088;-73
2021/10/05 03:11:53;;;;;;;5.80;3.63;;;;;;;8.63;100.00;101276.75;5008545;28;20471;-73
2021/10/05 03:14:19;;;;;;;7.90;3.83;;;;;;;8.60;100.00;101265.69;4989094;28;20045;-72
2021/10/05 03:16:44;;;;;;;7.63;3.85;;;;;;;8.58;100.00;101277.09;5002106;28;20455;-74
2021/10/05 03:19:10;;;;;;;7.28;4.10;;;;;;;8.57;100.00;101275.44;5005832;28;20042;-72
2021/10/05 03:21:36;;;;;;;7.95;4.65;;;;;;;8.49;100.00;101264.72;4989160;28;20404;-73
2021/10/05 03:24:01;;;;;;;7.03;4.15;;;;;;;8.53;100.00;101268.78;4989331;28;20125;-72
2021/10/05 03:26:27;;;;;;;10.10;4.43;;;;;;;8.57;100.00;101269.38;5006884;28;20109;-73
2021/10/05 03:28:52;;;;;;;9.57;4.88;;;;;;;8.57;100.00;101258.94;4973785;28;20509;-76
2021/10/05 03:31:18;;;;;;;9.13;4.70;;;;;;;8.57;100.00;101253.69;5006282;28;20042;-74
2021/10/05 03:33:45;;;;;;;11.23;4.97;;;;;;;8.61;100.00;101244.66;4955757;28;20030;-72
2021/10/05 03:36:12;;;;;;;10.38;5.07;;;;;;;8.58;100.00;101242.25;5005421;28;20033;-72
2021/10/05 03:38:39;;;;;;;13.30;5.30;;;;;;;8.61;100.00;101241.19;4994600;28;20038;-72
2021/10/05 03:41:05;;;;;;;13.43;5.40;;;;;;;8.63;100.00;101234.06;4989326;28;20057;-72
2021/10/05 03:43:31;;;;;;;10.35;5.15;;;;;;;8.65;100.00;101234.78;4974153;28;20040;-74
2021/10/05 03:45:57;;;;;;;9.43;5.07;;;;;;;8.66;100.00;101237.25;4989174;28;20656;-73
2021/10/05 03:48:22;;;;;;;9.65;4.90;;;;;;;8.60;100.00;101231.69;5000380;28;20026;-71
2021/10/05 03:50:48;;;;;;;15.10;5.63;;;;;;;8.60;100.00;101223.84;5004221;28;20045;-75
2021/10/05 03:53:18;;;;;;;8.57;5.65;;;;;;;8.61;100.00;101222.88;5004405;28;20040;-74
2021/10/05 03:55:50;;;;;;;10.38;5.28;;;;;;;8.69;100.00;101218.72;5004594;28;20167;-71
2021/10/05 03:58:17;;;;;;;11.13;5.85;;;;;;;8.64;100.00;101222.66;4977413;28;20034;-71
2021/10/05 04:00:42;;;;;;;11.50;5.85;;;;;;;8.63;100.00;101227.06;4997618;28;20097;-72
2021/10/05 04:03:08;;;;;;;10.27;5.75;;;;;;;8.64;100.00;101214.81;5007224;28;20447;-72
2021/10/05 04:05:34;;;;;;;13.93;6.18;;;;;;;8.58;100.00;101219.56;4992493;28;20038;-72
2021/10/05 04:08:01;;;;;;;9.32;5.57;;;;;;;8.62;100.00;101224.56;4999600;28;20034;-72
2021/10/05 04:10:28;;;;;;;13.85;6.03;;;;;;;8.64;100.00;101210.38;4982453;28;20113;-72
2021/10/05 04:12:54;;;;;;;10.38;5.75;;;;;;;8.64;100.00;101206.94;5006339;28;20038;-73
2021/10/05 04:15:20;;;;;;;10.60;5.70;;;;;;;8.69;100.00;101207.44;4997531;28;20080;-72
2021/10/05 04:17:45;;;;;;;10.23;5.68;;;;;;;8.65;100.00;101195.56;5006260;28;20033;-72
2021/10/05 04:20:11;;;;;;;11.07;5.78;;;;;;;8.65;100.00;101193.75;4986694;28;20042;-72
2021/10/05 04:22:37;;;;;;;9.70;6.03;;;;;;;8.62;100.00;101187.94;4974359;28;20038;-72
2021/10/05 04:25:06;;;;;;;9.57;5.68;;;;;;;8.64;100.00;101184.25;4974918;28;20099;-72
2021/10/05 04:27:33;;;;;;;11.45;6.47;;;;;;;8.64;100.00;101181.63;4990811;23;20456;-73
2021/10/05 04:29:58;;;;;;;11.73;5.93;;;;;;;8.63;100.00;101177.38;5014554;28;20108;-72
2021/10/05 04:32:24;;;;;;;11.23;5.90;;;;;;;8.66;100.00;101173.66;5001510;28;20593;-74
2021/10/05 04:34:49;;;;;;;8.90;5.68;;;;;;;8.69;100.00;101178.66;5015736;28;20509;-74
2021/10/05 04:37:15;;;;;;;8.45;5.53;;;;;;;8.71;100.00;101179.38;5023129;28;20454;-75
2021/10/05 04:39:40;;;;;;;9.90;5.45;;;;;;;8.60;100.00;101172.38;5023672;28;20526;-74
2021/10/05 04:42:06;;;;;;;9.48;5.45;;;;;;;8.61;100.00;101176.66;4983006;28;20048;-74
2021/10/05 04:44:32;;;;;;;10.00;5.53;;;;;;;8.62;100.00;101173.06;5011027;28;20029;-73
2021/10/05 04:46:58;;;;;;;12.02;5.95;;;;;;;8.64;100.00;101170.34;5008822;28;20060;-75
2021/10/05 04:49:23;;;;;;;10.18;5.80;;;;;;;8.64;100.00;101163.31;5012280;28;20045;-74
2021/10/05 04:51:49;;;;;;;13.27;6.18;;;;;;;8.69;100.00;101168.19;5013985;28;20080;-75
2021/10/05 04:54:14;;;;;;;8.55;6.07;;;;;;;8.60;100.00;101159.28;5028355;28;20033;-73
2021/10/05 04:56:40;;;;;;;10.48;5.70;;;;;;;8.66;100.00;101157.97;4997058;28;20064;-78
2021/10/05 04:59:05;;;;;;;10.00;6.00;;;;;;;8.61;100.00;101153.13;5012394;28;20044;-73
2021/10/05 05:01:31;;;;;;;10.68;6.55;;;;;;;8.65;100.00;101156.31;4996317;28;20482;-76
2021/10/05 05:03:56;;;;;;;9.43;6.30;;;;;;;8.64;100.00;101152.84;5032667;28;20030;-76
2021/10/05 05:06:22;;;;;;;8.90;5.60;;;;;;;8.72;100.00;101154.84;5033293;28;20107;-75
2021/10/05 05:08:47;;;;;;;14.25;6.00;;;;;;;8.72;100.00;101141.78;4999298;28;20052;-74
2021/10/05 05:11:13;;;;;;;13.70;5.95;;;;;;;8.69;100.00;101142.88;5028700;28;20029;-74
2021/10/05 05:13:38;;;;;;;10.57;5.90;;;;;;;8.72;100.00;101142.63;5017707;28;20038;-72
2021/10/05 05:16:04;;;;;;;12.18;6.00;;;;;;;8.77;100.00;101155.31;4998394;28;20042;-75
2021/10/05 05:18:29;;;;;;;11.65;5.85;;;;;;;8.77;100.00;101145.69;5009437;28;20135;-74
2021/10/05 05:20:55;;;;;;;9.75;5.75;;;;;;;8.79;100.00;101142.13;5016039;28;20124;-72
2021/10/05 05:23:21;;;;;;;8.77;5.50;;;;;;;8.82;100.00;101140.09;4996115;28;20409;-74
2021/10/05 05:25:46;;;;;;;10.90;6.22;;;;;;;8.77;100.00;101137.84;5031957;28;20033;-73
2021/10/05 05:28:14;;;;;;;10.43;5.72;;;;;;;8.77;100.00;101134.41;5011718;28;20033;-73
2021/10/05 05:30:40;;;;;;;10.45;6.10;;;;;;;8.76;100.00;101135.38;5013761;28;20050;-77
2021/10/05 05:33:06;;;;;;;11.45;6.40;;;;;;;8.77;100.00;101131.78;5010119;28;20086;-74
2021/10/05 05:35:32;;;;;;;11.40;6.07;;;;;;;8.79;100.00;101124.63;5025839;28;20116;-76
2021/10/05 05:37:57;;;;;;;11.02;6.07;;;;;;;8.77;100.00;101118.69;5017383;28;20036;-73
2021/10/05 05:40:23;;;;;;;11.38;5.75;;;;;;;8.81;100.00;101124.50;5023209;28;20038;-75
2021/10/05 05:42:48;;;;;;;8.52;5.72;;;;;;;8.80;100.00;101122.84;4978174;28;20826;-73
2021/10/05 05:45:13;;;;;;;11.07;5.88;;;;;;;8.85;100.00;101131.97;5013086;28;20034;-74
2021/10/05 05:47:40;;;;;;;8.73;5.70;;;;;;;8.85;100.00;101121.50;4991227;28;20685;-73
2021/10/05 05:50:08;;;;;;;10.95;5.85;;;;;;;8.82;100.00;101129.63;4975333;28;20092;-73
2021/10/05 05:52:34;;;;;;;11.55;5.70;;;;;;;8.84;100.00;101122.47;4996093;28;20072;-73
2021/10/05 05:55:00;;;;;;;10.35;6.10;;;;;;;8.85;100.00;101123.31;4995497;28;20041;-76
2021/10/05 05:57:26;;;;;;;7.65;5.20;;;;;;;8.92;100.00;101120.06;4993578;28;20033;-74
2021/10/05 05:59:52;;;;;;;12.90;5.95;;;;;;;8.90;100.00;101115.91;5026874;28;20144;-75
2021/10/05 06:02:18;;;;;;;10.57;6.22;;;;;;;8.91;100.00;101115.78;5012463;28;20095;-73
2021/10/05 06:04:43;;;;;;;8.93;5.60;;;;;;;8.92;100.00;101119.22;5018428;28;20490;-77
2021/10/05 06:07:11;;;;;;;10.77;5.78;;;;;;;8.93;100.00;101118.28;5013079;28;20061;-73
2021/10/05 06:09:37;;;;;;;11.60;6.57;;;;;;;8.92;100.00;101117.44;5024949;28;20065;-73
2021/10/05 06:12:07;;;;;;;8.85;5.70;;;;;;;8.94;100.00;101119.94;5024481;28;20029;-73
2021/10/05 06:14:33;;;;;;;8.38;5.75;;;;;;;8.95;100.00;101122.44;5008503;28;20029;-73
2021/10/05 06:17:01;;;;;;;7.93;5.70;;;;;;;8.98;100.00;101112.66;5009843;28;20036;-73
2021/10/05 06:19:27;;;;;;;12.40;5.97;;;;;;;8.93;100.00;101113.88;4975027;28;22102;-74
2021/10/05 06:21:53;;;;;;;12.23;6.15;;;;;;;8.99;100.00;101122.19;5017847;28;20073;-72
2021/10/05 06:24:19;;;;;;;12.52;5.93;;;;;;;8.99;100.00;101127.41;5021218;28;20029;-75
2021/10/05 06:26:45;;;;;;;12.15;6.20;;;;;;;9.03;100.00;101126.19;5014982;28;20569;-74
2021/10/05 06:29:10;;;;;;;9.85;6.10;;;;;;;9.07;100.00;101125.81;5028442;28;20087;-75
2021/10/05 06:31:36;;;;;;;11.50;5.88;;;;;;;9.08;100.00;101129.25;5014773;28;20034;-74
2021/10/05 06:34:01;;;;;;;13.27;5.80;;;;;;;9.10;100.00;101127.38;5025417;28;20036;-73
2021/10/05 06:36:27;;;;;;;10.98;6.25;;;;;;;9.10;100.00;101133.41;4995635;28;20087;-75
2021/10/05 06:38:52;;;;;;;13.73;6.05;;;;;;;9.14;100.00;101126.16;5015132;28;20040;-73
2021/10/05 06:41:18;;;;;;;8.95;5.82;;;;;;;9.19;100.00;101126.56;4991189;28;20034;-73
2021/10/05 06:43:43;;;;;;;10.40;6.07;;;;;;;9.16;100.00;101125.03;5003800;28;20034;-74
2021/10/05 06:46:09;;;;;;;10.10;6.30;;;;;;;9.20;100.00;101123.00;5016945;28;20870;-75
2021/10/05 06:48:35;;;;;;;13.32;6.28;;;;;;;9.21;100.00;101116.81;5008530;28;20033;-73
2021/10/05 06:51:00;;;;;;;11.68;6.60;;;;;;;9.25;100.00;101117.38;4984540;28;20029;-73
2021/10/05 06:53:27;;;;;;;10.02;5.90;;;;;;;9.32;100.00;101115.91;5006810;28;20490;-73
2021/10/05 06:55:53;;;;;;;10.10;6.45;;;;;;;9.40;100.00;101115.25;5006627;28;20073;-74
2021/10/05 06:58:19;;;;;;;9.98;5.82;;;;;;;9.47;100.00;101119.84;4992843;28;20494;-72
2021/10/05 07:00:45;;;;;;;11.20;6.35;;;;;;;9.54;100.00;101113.13;4993368;28;20044;-73
2021/10/05 07:03:10;;;;;;;10.40;6.50;;;;;;;9.52;100.00;101122.09;5000235;28;20033;-74
2021/10/05 07:05:36;;;;;;;10.82;6.25;;;;;;;9.53;100.00;101115.88;5020491;28;20041;-73
2021/10/05 07:08:09;;;;;;;11.15;6.47;;;;;;;9.57;100.00;101116.44;4977840;28;20035;-76
2021/10/05 07:10:36;;;;;;;12.77;7.13;;;;;;;9.57;100.00;101113.81;4999563;28;20465;-73
2021/10/05 07:13:03;;;;;;;9.55;6.00;;;;;;;9.60;100.00;101108.34;5009338;28;20116;-73
2021/10/05 07:15:29;;;;;;;10.77;6.32;;;;;;;9.63;100.00;101106.28;5019784;28;20045;-73
2021/10/05 07:17:56;;;;;;;11.10;7.15;;;;;;;9.63;100.00;101110.69;5019878;28;20104;-73
2021/10/05 07:20:22;;;;;;;11.48;7.03;;;;;;;9.67;100.00;101106.84;4999334;28;20065;-71
2021/10/05 07:22:48;;;;;;;12.60;7.15;;;;;;;9.66;100.00;101094.72;5004283;28;20129;-74
2021/10/05 07:25:14;;;;;;;11.60;6.53;;;;;;;9.70;100.00;101096.09;5012927;28;20041;-75
2021/10/05 07:27:39;;;;;;;9.73;6.75;;;;;;;9.71;100.00;101092.53;4995375;28;20132;-75
2021/10/05 07:30:07;;;;;;;11.07;6.95;;;;;;;9.73;100.00;101075.72;4994357;28;20037;-74
2021/10/05 07:32:34;;;;;;;9.20;6.72;;;;;;;9.85;100.00;101086.09;5014402;28;20129;-75
2021/10/05 07:35:00;;;;;;;11.10;6.80;;;;;;;9.86;100.00;101088.56;5025957;28;20033;-75
2021/10/05 07:37:26;;;;;;;11.20;6.82;;;;;;;9.86;100.00;101079.91;5016366;28;20036;-75
2021/10/05 07:39:52;;;;;;;11.48;6.50;;;;;;;9.88;100.00;101089.28;4996130;28;20048;-74
2021/10/05 07:42:20;;;;;;;12.27;6.10;;;;;;;9.86;100.00;101074.66;4977103;28;20172;-75
2021/10/05 07:44:49;;;;;;;12.02;6.30;;;;;;;9.92;100.00;101071.50;5008494;28;20514;-74
2021/10/05 07:47:14;;;;;;;8.90;6.00;;;;;;;9.99;100.00;101064.75;4996909;28;20064;-75
2021/10/05 07:49:40;;;;;;;12.80;6.50;;;;;;;10.02;100.00;101061.88;4973980;28;20038;-74
2021/10/05 07:52:06;;;;;;;8.88;6.13;;;;;;;10.04;100.00;101052.09;5012825;28;20029;-72
2021/10/05 07:54:31;;;;;;;12.32;6.18;;;;;;;10.05;100.00;101048.47;5001834;28;20065;-74
2021/10/05 07:56:57;;;;;;;9.68;6.05;;;;;;;10.18;100.00;101052.66;5013211;28;20033;-73
2021/10/05 07:59:22;;;;;;;8.05;6.07;;;;;;;10.21;100.00;101049.75;5009159;28;20045;-74
2021/10/05 08:01:51;;;;;;;7.25;5.47;;;;;;;10.21;100.00;101044.50;5020043;28;20029;-73
2021/10/05 08:04:18;;;;;;;9.52;6.03;;;;;;;10.26;100.00;101044.94;5015411;28;20085;-72
2021/10/05 08:06:44;;;;;;;10.40;6.15;;;;;;;10.27;100.00;101046.59;4984173;28;20033;-76
2021/10/05 08:09:13;;;;;;;10.70;5.85;;;;;;;10.29;100.00;101042.03;4992632;28;20037;-74
2021/10/05 08:11:42;;;;;;;10.82;6.05;;;;;;;10.28;100.00;101032.50;5009728;28;20108;-75
2021/10/05 08:14:08;;;;;;;10.70;5.68;;;;;;;10.38;100.00;101033.38;5007510;28;20037;-72
2021/10/05 08:16:34;;;;;;;11.30;6.57;;;;;;;10.39;100.00;101028.97;4997584;28;20037;-73
2021/10/05 08:19:00;;;;;;;9.65;6.38;;;;;;;10.40;100.00;101028.00;5026528;28;20045;-74
2021/10/05 08:21:27;;;;;;;10.35;6.53;;;;;;;10.42;100.00;101020.81;5017539;28;20033;-73
2021/10/05 08:23:53;;;;;;;11.77;6.50;;;;;;;10.47;100.00;101011.56;5009195;28;20040;-75
2021/10/05 08:26:20;;;;;;;10.35;6.35;;;;;;;10.49;100.00;101017.50;5024879;28;20026;-72
2021/10/05 08:28:47;;;;;;;9.82;6.40;;;;;;;10.47;100.00;101014.19;4983432;28;20873;-72
2021/10/05 08:31:13;;;;;;;11.27;6.93;;;;;;;10.51;100.00;101006.88;5023986;28;20036;-76
2021/10/05 08:33:39;;;;;;;14.90;7.07;;;;;;;10.56;100.00;101009.88;5008491;28;20045;-74
2021/10/05 08:36:05;;;;;;;10.05;7.00;;;;;;;10.59;100.00;101003.56;5020292;28;20033;-73
2021/10/05 08:38:30;;;;;;;10.00;7.47;;;;;;;10.58;100.00;101002.72;5004137;28;20526;-72
2021/10/05 08:40:56;;;;;;;9.25;7.18;;;;;;;10.59;100.00;100999.13;4986155;28;20037;-74
2021/10/05 08:43:24;;;;;;;11.18;7.80;;;;;;;10.68;100.00;100995.66;5019258;28;20108;-74
2021/10/05 08:45:50;;;;;;;11.85;7.30;;;;;;;10.66;100.00;100994.97;4988647;28;20044;-74
2021/10/05 08:48:16;;;;;;;10.77;7.75;;;;;;;10.63;100.00;100987.38;4988610;28;20034;-74
2021/10/05 08:50:42;;;;;;;13.38;8.50;;;;;;;10.69;100.00;100980.75;5005661;28;20038;-75
2021/10/05 08:53:08;;;;;;;13.70;8.27;;;;;;;10.68;100.00;100973.81;5023639;28;20509;-73
2021/10/05 08:55:33;;;;;;;13.05;8.55;;;;;;;10.78;100.00;100979.91;5006220;28;20037;-77
2021/10/05 08:57:59;;;;;;;12.10;8.30;;;;;;;10.82;100.00;100970.78;4989355;28;20371;-75
2021/10/05 09:00:30;;;;;;;15.23;8.82;;;;;;;10.82;100.00;100964.69;5011833;28;20076;-72
2021/10/05 09:02:56;;;;;;;12.27;8.20;;;;;;;10.85;100.00;100961.78;5010339;28;20045;-74
2021/10/05 09:05:22;;;;;;;12.23;8.40;;;;;;;10.83;100.00;100956.69;5024182;28;20025;-72
2021/10/05 09:07:50;;;;;;;11.30;8.38;;;;;;;10.86;100.00;100952.94;4993377;28;20021;-74
2021/10/05 09:10:19;;;;;;;11.75;8.13;;;;;;;10.85;100.00;100956.53;5016871;28;20047;-75
2021/10/05 09:12:46;;;;;;;13.15;8.65;;;;;;;10.87;100.00;100950.19;5031612;28;20072;-75
2021/10/05 09:15:13;;;;;;;14.02;8.43;;;;;;;10.94;100.00;100954.84;5014834;28;20444;-74
2021/10/05 09:17:39;;;;;;;13.13;8.32;;;;;;;10.99;100.00;100948.19;5005097;28;20399;-74
2021/10/05 09:20:23;;;;;;;12.15;7.70;;;;;;;10.99;100.00;100950.81;5013398;28;20030;-75
2021/10/05 09:23:15;;;;;;;13.25;9.00;;;;;;;11.03;100.00;100946.13;5013144;28;20570;-73
2021/10/05 09:25:44;;;;;;;13.30;8.65;;;;;;;11.08;100.00;100951.78;4999447;28;20060;-73
2021/10/05 09:28:25;;;;;;;10.95;8.20;;;;;;;11.04;100.00;100945.97;4980699;28;20033;-75
2021/10/05 09:31:06;;;;;;;14.95;9.15;;;;;;;11.19;100.00;100948.09;5009582;28;20061;-75
2021/10/05 09:33:34;;;;;;;12.32;9.43;;;;;;;11.14;100.00;100955.63;4993112;28;20045;-73
2021/10/05 09:36:00;;;;;;;14.55;9.63;;;;;;;11.13;100.00;100951.31;4995724;28;20128;-73
2021/10/05 09:38:27;;;;;;;12.68;9.90;;;;;;;11.09;100.00;100949.00;4996476;28;20083;-76
2021/10/05 09:41:08;;;;;;;14.32;9.95;;;;;;;11.12;100.00;100939.19;4993597;28;20041;-74
2021/10/05 09:43:34;;;;;;;12.68;9.35;;;;;;;11.06;100.00;100938.78;4979321;28;20402;-75
2021/10/05 09:46:12;;;;;;;12.35;9.15;;;;;;;11.06;100.00;100943.22;4994762;28;20164;-73
2021/10/05 09:48:38;;;;;;;14.70;9.32;;;;;;;11.15;100.00;100936.25;5012110;28;20037;-73
2021/10/05 09:51:22;;;;;;;12.30;8.82;;;;;;;11.08;100.00;100926.34;5018253;28;20033;-74
2021/10/05 09:53:52;;;;;;;11.18;8.23;;;;;;;11.07;100.00;100923.84;5019391;28;20041;-73
2021/10/05 09:56:19;;;;;;;11.68;7.82;;;;;;;11.09;100.00;100925.38;4975337;28;20029;-73
2021/10/05 09:58:44;;;;;;;12.95;8.23;;;;;;;11.02;100.00;100919.06;4993935;28;20061;-74
2021/10/05 10:01:10;;;;;;;12.65;8.15;;;;;;;11.00;100.00;100915.75;5025345;28;20080;-73
2021/10/05 10:03:36;;;;;;;10.27;7.80;;;;;;;11.05;100.00;100925.78;5011472;28;20045;-75
2021/10/05 10:06:02;;;;;;;13.63;9.07;;;;;;;11.05;100.00;100925.78;4994402;28;20025;-73
2021/10/05 10:08:31;;;;;;;10.73;8.00;;;;;;;10.97;100.00;100921.28;5008012;28;20034;-73
2021/10/05 10:10:57;;;;;;;12.75;8.75;;;;;;;10.99;100.00;100926.38;5022352;28;20721;-75
2021/10/05 10:13:23;;;;;;;10.43;8.20;;;;;;;10.98;100.00;100919.47;5009945;28;20040;-73
2021/10/05 10:15:50;;;;;;;11.52;8.60;;;;;;;10.95;100.00;100920.59;4987810;28;20140;-74
2021/10/05 10:18:17;;;;;;;15.02;8.63;;;;;;;10.97;100.00;100916.03;5025659;28;20064;-73
2021/10/05 10:20:50;;;;;;;13.07;8.88;;;;;;;10.94;100.00;100911.06;5011851;28;20052;-73
2021/10/05 10:23:15;;;;;;;;;;;;;;;11.01;100.00;100909.50;5011869;28;20129;-74
2021/10/05 10:25:51;;;;;;;8.95;7.68;;;;;;;10.97;100.00;100908.16;5004995;28;19991;-73
2021/10/05 10:28:17;;;;;;;9.38;8.20;;;;;;;10.96;100.00;100901.22;5022376;23;20039;-82
2021/10/05 10:30:51;;;;;;;9.73;7.68;;;;;;;10.86;100.00;100890.78;4973132;28;20062;-81
2021/10/05 10:33:18;;;;;;;11.65;7.93;;;;;;;10.93;100.00;100904.16;4974644;28;20139;-81
2021/10/05 10:35:48;;;;;;;9.10;7.95;;;;;;;10.91;100.00;100900.88;4976010;28;20042;-79
2021/10/05 10:38:22;;;;;;;10.75;7.55;;;;;;;10.91;100.00;100878.06;4991688;28;20795;-79
2021/10/05 10:40:47;;;;;;;10.20;7.70;;;;;;;10.91;100.00;100874.63;4952091;28;20527;-80
2021/10/05 10:43:15;;;;;;;9.32;7.03;;;;;;;10.94;100.00;100879.56;4977834;28;20038;-81
2021/10/05 10:45:46;;;;;;;9.48;6.63;;;;;;;10.98;100.00;100880.09;4953514;28;20037;-79
2021/10/05 10:48:11;;;;;;;10.38;6.72;;;;;;;10.94;100.00;100879.56;4943729;28;20038;-80
2021/10/05 10:50:38;;;;;;;10.15;7.10;;;;;;;10.96;100.00;100871.53;4949166;28;20173;-81
2021/10/05 10:53:07;;;;;;;9.38;6.72;;;;;;;10.99;100.00;100869.47;4960302;28;20038;-79
2021/10/05 10:55:34;;;;;;;9.88;6.63;;;;;;;11.06;100.00;100857.41;4961682;28;20064;-76
2021/10/05 10:58:00;;;;;;;7.53;6.13;;;;;;;11.11;100.00;100856.97;4942713;28;20124;-78
2021/10/05 11:00:31;;;;;;;7.00;5.72;;;;;;;11.12;100.00;100855.19;4964748;28;20128;-77
2021/10/05 11:03:02;;;;;;;9.07;5.78;;;;;;;11.10;100.00;100850.06;4977535;28;20104;-79
2021/10/05 11:05:33;;;;;;;6.80;5.57;;;;;;;11.12;100.00;100845.50;4960541;28;20035;-77
2021/10/05 11:07:59;;;;;;;8.55;5.13;;;;;;;11.16;100.00;100849.47;4974759;28;20038;-80
2021/10/05 11:10:33;;;;;;;6.75;5.57;;;;;;;11.15;100.00;100844.38;4981696;28;20041;-77
2021/10/05 11:13:03;;;;;;;9.48;5.95;;;;;;;11.15;100.00;100844.38;4956112;28;20042;-80
2021/10/05 11:15:32;;;;;;;6.65;5.30;;;;;;;11.15;100.00;100842.59;4955325;28;20039;-82
2021/10/05 11:18:06;;;;;;;7.45;4.93;;;;;;;11.21;100.00;100838.53;4963586;28;20030;-80